createdAt,value
2022-10-20T00:00:24.237Z,0
2022-10-20T00:01:24.831Z,0
2022-10-20T00:02:25.480Z,0
2022-10-20T00:03:26.037Z,0
2022-10-20T00:04:26.647Z,0
2022-10-20T00:05:27.240Z,0
2022-10-20T00:06:27.838Z,0
2022-10-20T00:07:28.429Z,0
2022-10-20T00:08:29.034Z,0
2022-10-20T00:09:29.617Z,0
2022-10-20T00:10:30.208Z,0
2022-10-20T00:11:30.801Z,0
2022-10-20T00:12:31.394Z,0
2022-10-20T00:13:31.988Z,0
2022-10-20T00:14:32.580Z,0
2022-10-20T00:15:33.173Z,0
2022-10-20T00:16:33.774Z,0
2022-10-20T00:17:34.360Z,0
2022-10-20T00:18:34.953Z,0
2022-10-20T00:19:35.549Z,0
2022-10-20T00:20:36.140Z,0
2022-10-20T00:21:36.736Z,0
2022-10-20T00:22:37.721Z,0
2022-10-20T00:23:38.360Z,0
2022-10-20T00:24:38.952Z,0
2022-10-20T00:25:39.547Z,0
2022-10-20T00:26:40.138Z,0
2022-10-20T00:27:40.732Z,0
2022-10-20T00:28:41.343Z,0
2022-10-20T00:29:41.937Z,0
2022-10-20T00:30:42.529Z,0
2022-10-20T00:31:43.123Z,0
2022-10-20T00:32:43.714Z,0
2022-10-20T00:33:44.309Z,0
2022-10-20T00:34:44.903Z,0
2022-10-20T00:35:45.505Z,0
2022-10-20T00:36:50.321Z,0
2022-10-20T00:37:47.674Z,0
2022-10-20T00:38:48.264Z,0
2022-10-20T00:39:48.878Z,0
2022-10-20T00:40:49.489Z,0
2022-10-20T00:41:50.083Z,0
2022-10-20T00:42:50.676Z,0
2022-10-20T00:43:51.269Z,0
2022-10-20T00:44:51.862Z,0
2022-10-20T00:45:52.454Z,0
2022-10-20T00:46:53.047Z,0
2022-10-20T00:47:53.640Z,0
2022-10-20T00:48:54.234Z,0
2022-10-20T00:49:54.826Z,0
2022-10-20T00:50:55.431Z,0
2022-10-20T00:51:56.009Z,0
2022-10-20T00:52:56.604Z,0
2022-10-20T00:53:57.198Z,0
2022-10-20T00:54:57.792Z,0
2022-10-20T00:55:58.384Z,0
2022-10-20T00:56:59.033Z,0
2022-10-20T00:57:59.572Z,0
2022-10-20T00:59:00.167Z,0
2022-10-20T01:00:00.763Z,0
2022-10-20T01:01:01.353Z,0
2022-10-20T01:02:02.020Z,0
2022-10-20T01:03:02.584Z,0
2022-10-20T01:04:03.199Z,0
2022-10-20T01:05:03.791Z,0
2022-10-20T01:06:04.408Z,0
2022-10-20T01:07:04.977Z,0
2022-10-20T01:08:05.732Z,0
2022-10-20T01:09:06.375Z,0
2022-10-20T01:10:06.952Z,0
2022-10-20T01:11:07.547Z,0
2022-10-20T01:12:08.139Z,0
2022-10-20T01:13:08.737Z,0
2022-10-20T01:14:09.330Z,0
2022-10-20T01:15:10.017Z,0
2022-10-20T01:16:10.612Z,0
2022-10-20T01:17:11.206Z,0
2022-10-20T01:18:11.800Z,0
2022-10-20T01:19:12.412Z,0
2022-10-20T01:20:13.008Z,0
2022-10-20T01:21:13.604Z,0
2022-10-20T01:22:14.198Z,0
2022-10-20T01:23:14.793Z,0
2022-10-20T01:24:15.425Z,0
2022-10-20T01:25:15.986Z,0
2022-10-20T01:26:16.579Z,0
2022-10-20T01:27:17.173Z,0
2022-10-20T01:28:17.767Z,0
2022-10-20T01:29:18.382Z,0
2022-10-20T01:30:18.975Z,0
2022-10-20T01:31:19.575Z,0
2022-10-20T01:32:20.170Z,0
2022-10-20T01:33:20.816Z,0
2022-10-20T01:34:21.373Z,0
2022-10-20T01:35:21.966Z,0
2022-10-20T01:36:22.560Z,0
2022-10-20T01:37:34.109Z,0
2022-10-20T01:38:24.743Z,0
2022-10-20T01:39:25.339Z,0
2022-10-20T01:40:25.933Z,0
2022-10-20T01:41:26.529Z,0
2022-10-20T01:42:27.184Z,0
2022-10-20T01:43:27.735Z,0
2022-10-20T01:44:28.328Z,0
2022-10-20T01:45:28.925Z,0
2022-10-20T01:46:29.519Z,0
2022-10-20T01:47:30.116Z,0
2022-10-20T01:48:30.712Z,0
2022-10-20T01:49:31.308Z,0
2022-10-20T01:50:31.904Z,0
2022-10-20T01:51:32.589Z,0
2022-10-20T01:52:33.393Z,0
2022-10-20T01:53:34.126Z,0
2022-10-20T01:54:34.722Z,0
2022-10-20T01:55:35.315Z,0
2022-10-20T01:56:35.909Z,0
2022-10-20T01:57:36.503Z,0
2022-10-20T01:58:37.099Z,0
2022-10-20T01:59:37.695Z,0
2022-10-20T02:00:38.291Z,0
2022-10-20T02:01:38.934Z,0
2022-10-20T02:02:39.595Z,0
2022-10-20T02:03:40.109Z,0
2022-10-20T02:04:40.703Z,0
2022-10-20T02:05:41.301Z,0
2022-10-20T02:06:41.895Z,0
2022-10-20T02:07:42.491Z,0
2022-10-20T02:08:43.620Z,0
2022-10-20T02:09:44.250Z,0
2022-10-20T02:10:44.809Z,0
2022-10-20T02:11:45.404Z,0
2022-10-20T02:12:45.998Z,0
2022-10-20T02:13:46.595Z,0
2022-10-20T02:14:47.189Z,0
2022-10-20T02:15:47.804Z,0
2022-10-20T02:16:48.401Z,0
2022-10-20T02:17:48.992Z,0
2022-10-20T02:18:49.627Z,0
2022-10-20T02:19:50.204Z,0
2022-10-20T02:20:50.803Z,0
2022-10-20T02:21:51.393Z,0
2022-10-20T02:22:51.986Z,0
2022-10-20T02:23:52.610Z,0
2022-10-20T02:24:53.213Z,0
2022-10-20T02:25:53.796Z,0
2022-10-20T02:26:54.390Z,0
2022-10-20T02:27:55.009Z,0
2022-10-20T02:28:55.580Z,0
2022-10-20T02:29:56.175Z,0
2022-10-20T02:30:56.768Z,0
2022-10-20T02:31:57.363Z,0
2022-10-20T02:32:57.956Z,0
2022-10-20T02:33:58.555Z,0
2022-10-20T02:35:03.497Z,0
2022-10-20T02:36:00.739Z,0
2022-10-20T02:37:01.344Z,0
2022-10-20T02:38:01.942Z,0
2022-10-20T02:39:02.566Z,0
2022-10-20T02:40:03.147Z,0
2022-10-20T02:41:03.739Z,0
2022-10-20T02:42:04.333Z,0
2022-10-20T02:43:04.927Z,0
2022-10-20T02:44:05.522Z,0
2022-10-20T02:45:06.116Z,0
2022-10-20T02:46:06.789Z,0
2022-10-20T02:47:07.359Z,0
2022-10-20T02:48:08.029Z,0
2022-10-20T02:49:08.565Z,0
2022-10-20T02:50:09.160Z,0
2022-10-20T02:51:09.752Z,0
2022-10-20T02:52:10.349Z,0
2022-10-20T02:53:10.945Z,0
2022-10-20T02:54:11.543Z,0
2022-10-20T02:55:12.177Z,0
2022-10-20T02:56:12.729Z,0
2022-10-20T02:57:13.344Z,0
2022-10-20T02:58:13.938Z,0
2022-10-20T02:59:14.545Z,0
2022-10-20T03:00:15.129Z,0
2022-10-20T03:01:15.758Z,0
2022-10-20T03:02:16.332Z,0
2022-10-20T03:03:16.927Z,0
2022-10-20T03:04:17.570Z,0
2022-10-20T03:05:18.133Z,0
2022-10-20T03:06:18.728Z,0
2022-10-20T03:07:19.324Z,0
2022-10-20T03:08:19.917Z,0
2022-10-20T03:09:20.513Z,0
2022-10-20T03:10:21.131Z,0
2022-10-20T03:11:21.723Z,0
2022-10-20T03:12:22.317Z,0
2022-10-20T03:13:22.933Z,0
2022-10-20T03:14:23.505Z,0
2022-10-20T03:15:24.100Z,0
2022-10-20T03:16:24.696Z,0
2022-10-20T03:17:25.292Z,0
2022-10-20T03:18:25.887Z,0
2022-10-20T03:19:26.482Z,0
2022-10-20T03:20:27.076Z,0
2022-10-20T03:21:27.668Z,0
2022-10-20T03:23:28.861Z,0
2022-10-20T03:24:29.457Z,0
2022-10-20T03:25:30.050Z,0
2022-10-20T03:26:30.644Z,0
2022-10-20T03:27:31.237Z,0
2022-10-20T03:28:31.830Z,0
2022-10-20T03:29:32.426Z,0
2022-10-20T03:30:33.020Z,0
2022-10-20T03:31:33.616Z,0
2022-10-20T03:32:34.449Z,0
2022-10-20T03:33:35.216Z,0
2022-10-20T03:34:35.813Z,0
2022-10-20T03:35:36.406Z,0
2022-10-20T03:36:36.999Z,0
2022-10-20T03:37:37.593Z,0
2022-10-20T03:38:38.190Z,0
2022-10-20T03:39:38.783Z,0
2022-10-20T03:40:39.379Z,0
2022-10-20T03:41:39.974Z,0
2022-10-20T03:42:40.570Z,0
2022-10-20T03:43:41.163Z,0
2022-10-20T03:44:41.758Z,0
2022-10-20T03:45:42.352Z,0
2022-10-20T03:46:42.947Z,0
2022-10-20T03:47:43.540Z,0
2022-10-20T03:48:44.135Z,0
2022-10-20T03:49:44.729Z,0
2022-10-20T03:50:45.325Z,0
2022-10-20T03:51:45.918Z,0
2022-10-20T03:52:46.512Z,0
2022-10-20T03:53:47.106Z,0
2022-10-20T03:54:47.701Z,0
2022-10-20T03:55:48.296Z,0
2022-10-20T03:56:48.890Z,0
2022-10-20T03:57:49.483Z,0
2022-10-20T03:58:50.160Z,0
2022-10-20T03:59:50.781Z,0
2022-10-20T04:00:51.397Z,0
2022-10-20T04:01:52.031Z,0
2022-10-20T04:02:52.607Z,0
2022-10-20T04:03:53.200Z,0
2022-10-20T04:04:53.794Z,0
2022-10-20T04:05:54.387Z,0
2022-10-20T04:06:54.983Z,0
2022-10-20T04:07:55.577Z,0
2022-10-20T04:08:56.231Z,0
2022-10-20T04:09:56.820Z,0
2022-10-20T04:10:57.415Z,0
2022-10-20T04:11:58.010Z,0
2022-10-20T04:12:58.607Z,0
2022-10-20T04:13:59.202Z,0
2022-10-20T04:14:59.814Z,0
2022-10-20T04:16:00.406Z,0
2022-10-20T04:17:01.004Z,0
2022-10-20T04:18:01.597Z,0
2022-10-20T04:19:02.194Z,0
2022-10-20T04:20:02.815Z,0
2022-10-20T04:21:03.403Z,0
2022-10-20T04:22:03.996Z,0
2022-10-20T04:23:04.593Z,0
2022-10-20T04:24:05.186Z,0
2022-10-20T04:25:05.783Z,0
2022-10-20T04:26:06.376Z,0
2022-10-20T04:27:06.975Z,0
2022-10-20T04:28:07.570Z,0
2022-10-20T04:29:08.182Z,0
2022-10-20T04:30:08.774Z,0
2022-10-20T04:31:09.370Z,0
2022-10-20T04:32:09.966Z,0
2022-10-20T04:33:10.563Z,0
2022-10-20T04:34:11.157Z,0
2022-10-20T04:35:11.758Z,0
2022-10-20T04:36:12.351Z,0
2022-10-20T04:37:12.942Z,0
2022-10-20T04:38:13.536Z,0
2022-10-20T04:39:14.127Z,0
2022-10-20T04:40:14.745Z,0
2022-10-20T04:41:15.336Z,0
2022-10-20T04:42:15.928Z,0
2022-10-20T04:43:16.521Z,0
2022-10-20T04:44:17.116Z,0
2022-10-20T04:45:17.710Z,0
2022-10-20T04:46:18.307Z,0
2022-10-20T04:47:18.896Z,0
2022-10-20T04:48:19.489Z,0
2022-10-20T04:49:20.084Z,0
2022-10-20T04:50:20.679Z,0
2022-10-20T04:51:21.276Z,0
2022-10-20T04:52:21.867Z,0
2022-10-20T04:53:22.461Z,0
2022-10-20T04:54:23.057Z,0
2022-10-20T04:55:23.645Z,0
2022-10-20T04:56:24.237Z,0
2022-10-20T04:57:24.830Z,0
2022-10-20T04:58:25.422Z,0
2022-10-20T04:59:26.016Z,0
2022-10-20T05:00:26.619Z,0
2022-10-20T05:01:27.255Z,0
2022-10-20T05:02:27.813Z,0
2022-10-20T05:03:28.410Z,0
2022-10-20T05:04:29.007Z,0
2022-10-20T05:05:29.647Z,0
2022-10-20T05:06:30.211Z,0
2022-10-20T05:07:30.803Z,0
2022-10-20T05:08:31.413Z,0
2022-10-20T05:09:31.986Z,0
2022-10-20T05:10:35.831Z,0
2022-10-20T05:11:34.164Z,0
2022-10-20T05:12:35.144Z,0
2022-10-20T05:13:35.822Z,0
2022-10-20T05:14:36.416Z,0
2022-10-20T05:15:37.005Z,0
2022-10-20T05:16:37.600Z,0
2022-10-20T05:17:38.195Z,0
2022-10-20T05:18:38.789Z,0
2022-10-20T05:19:39.377Z,0
2022-10-20T05:20:41.216Z,0
2022-10-20T05:22:42.155Z,0
2022-10-20T05:23:42.749Z,0
2022-10-20T05:24:43.340Z,0
2022-10-20T05:25:43.932Z,0
2022-10-20T05:26:44.526Z,0
2022-10-20T05:27:45.118Z,0
2022-10-20T05:28:45.714Z,0
2022-10-20T05:29:46.352Z,0
2022-10-20T05:30:46.906Z,0
2022-10-20T05:31:47.494Z,0
2022-10-20T05:32:48.088Z,0
2022-10-20T05:33:48.682Z,0
2022-10-20T05:34:49.275Z,0
2022-10-20T05:35:49.870Z,0
2022-10-20T05:36:50.464Z,0
2022-10-20T05:37:51.058Z,0
2022-10-20T05:38:51.651Z,0
2022-10-20T05:39:52.245Z,0
2022-10-20T05:40:52.859Z,5
2022-10-20T05:41:53.449Z,5
2022-10-20T05:42:54.044Z,5
2022-10-20T05:43:54.637Z,5
2022-10-20T05:44:55.235Z,5
2022-10-20T05:45:55.829Z,5
2022-10-20T05:46:56.425Z,5
2022-10-20T05:47:57.019Z,11
2022-10-20T05:48:57.615Z,11
2022-10-20T05:49:58.210Z,11
2022-10-20T05:50:58.805Z,11
2022-10-20T05:51:59.400Z,11
2022-10-20T05:52:59.996Z,11
2022-10-20T05:54:00.601Z,11
2022-10-20T05:55:01.190Z,11
2022-10-20T05:56:01.787Z,16
2022-10-20T05:57:02.384Z,16
2022-10-20T05:58:02.979Z,16
2022-10-20T05:59:03.576Z,22
2022-10-20T06:00:04.172Z,22
2022-10-20T06:01:04.786Z,22
2022-10-20T06:02:05.380Z,28
2022-10-20T06:03:06.083Z,28
2022-10-20T06:04:06.675Z,33
2022-10-20T06:05:07.273Z,33
2022-10-20T06:06:07.868Z,39
2022-10-20T06:07:08.466Z,39
2022-10-20T06:08:09.061Z,45
2022-10-20T06:09:09.658Z,45
2022-10-20T06:10:10.254Z,50
2022-10-20T06:11:10.853Z,56
2022-10-20T06:12:11.452Z,56
2022-10-20T06:13:12.050Z,61
2022-10-20T06:14:12.647Z,67
2022-10-20T06:15:13.248Z,67
2022-10-20T06:16:13.844Z,73
2022-10-20T06:17:14.441Z,73
2022-10-20T06:18:15.036Z,78
2022-10-20T06:19:15.634Z,84
2022-10-20T06:20:16.232Z,84
2022-10-20T06:21:16.829Z,84
2022-10-20T06:22:17.426Z,90
2022-10-20T06:23:18.024Z,95
2022-10-20T06:24:18.622Z,101
2022-10-20T06:25:19.222Z,101
2022-10-20T06:26:19.824Z,106
2022-10-20T06:27:20.419Z,112
2022-10-20T06:28:21.017Z,118
2022-10-20T06:29:21.617Z,123
2022-10-20T06:30:22.213Z,129
2022-10-20T06:31:22.832Z,129
2022-10-20T06:32:23.411Z,135
2022-10-20T06:33:24.006Z,140
2022-10-20T06:34:24.658Z,146
2022-10-20T06:35:25.250Z,151
2022-10-20T06:36:25.847Z,157
2022-10-20T06:37:26.444Z,163
2022-10-20T06:38:27.041Z,163
2022-10-20T06:39:27.639Z,168
2022-10-20T06:40:28.235Z,168
2022-10-20T06:41:28.834Z,174
2022-10-20T06:42:29.430Z,180
2022-10-20T06:43:30.031Z,185
2022-10-20T06:44:30.648Z,191
2022-10-20T06:45:31.245Z,196
2022-10-20T06:46:31.842Z,196
2022-10-20T06:47:32.441Z,202
2022-10-20T06:48:33.064Z,208
2022-10-20T06:49:33.657Z,213
2022-10-20T06:50:34.251Z,219
2022-10-20T06:51:34.859Z,219
2022-10-20T06:52:35.618Z,225
2022-10-20T06:53:36.320Z,230
2022-10-20T06:54:36.917Z,236
2022-10-20T06:55:37.516Z,241
2022-10-20T06:56:38.113Z,253
2022-10-20T06:57:38.731Z,253
2022-10-20T06:58:39.328Z,253
2022-10-20T06:59:39.935Z,258
2022-10-20T07:00:40.523Z,264
2022-10-20T07:01:41.209Z,270
2022-10-20T07:02:41.774Z,275
2022-10-20T07:03:42.377Z,286
2022-10-20T07:04:42.969Z,292
2022-10-20T07:05:43.567Z,298
2022-10-20T07:06:44.162Z,303
2022-10-20T07:07:44.760Z,320
2022-10-20T07:08:45.473Z,326
2022-10-20T07:09:46.086Z,326
2022-10-20T07:10:46.681Z,331
2022-10-20T07:11:47.279Z,343
2022-10-20T07:12:47.875Z,354
2022-10-20T07:13:48.473Z,360
2022-10-20T07:14:49.131Z,365
2022-10-20T07:15:49.693Z,371
2022-10-20T07:16:50.289Z,376
2022-10-20T07:17:50.887Z,388
2022-10-20T07:18:51.508Z,382
2022-10-20T07:19:52.280Z,382
2022-10-20T07:20:52.878Z,388
2022-10-20T07:21:53.532Z,393
2022-10-20T07:22:54.095Z,393
2022-10-20T07:23:54.696Z,393
2022-10-20T07:24:55.317Z,399
2022-10-20T07:25:55.915Z,410
2022-10-20T07:26:56.515Z,410
2022-10-20T07:27:57.112Z,416
2022-10-20T07:28:57.715Z,421
2022-10-20T07:29:58.311Z,427
2022-10-20T07:30:58.908Z,427
2022-10-20T07:32:01.434Z,433
2022-10-20T07:33:01.099Z,438
2022-10-20T07:34:12.880Z,450
2022-10-20T07:35:03.292Z,450
2022-10-20T07:36:03.894Z,455
2022-10-20T07:37:04.512Z,461
2022-10-20T07:38:05.114Z,466
2022-10-20T07:39:05.712Z,483
2022-10-20T07:40:06.515Z,506
2022-10-20T07:41:07.113Z,523
2022-10-20T07:42:07.714Z,540
2022-10-20T07:43:08.312Z,551
2022-10-20T07:44:08.913Z,556
2022-10-20T07:45:09.510Z,545
2022-10-20T07:46:10.112Z,540
2022-10-20T07:47:10.708Z,528
2022-10-20T07:48:11.308Z,506
2022-10-20T07:49:42.293Z,511
2022-10-20T07:50:13.497Z,489
2022-10-20T07:52:14.704Z,573
2022-10-20T07:53:15.299Z,562
2022-10-20T07:54:15.898Z,579
2022-10-20T07:55:33.402Z,596
2022-10-20T07:56:18.088Z,669
2022-10-20T07:57:18.688Z,680
2022-10-20T07:58:19.287Z,686
2022-10-20T07:59:19.884Z,691
2022-10-20T08:00:20.503Z,691
2022-10-20T08:01:21.135Z,669
2022-10-20T08:02:21.759Z,686
2022-10-20T08:03:22.320Z,675
2022-10-20T08:04:22.919Z,652
2022-10-20T08:05:23.517Z,658
2022-10-20T08:06:24.115Z,663
2022-10-20T08:07:24.712Z,646
2022-10-20T08:08:25.436Z,641
2022-10-20T08:09:26.006Z,646
2022-10-20T08:10:26.604Z,646
2022-10-20T08:11:27.212Z,641
2022-10-20T08:12:27.826Z,652
2022-10-20T08:13:28.439Z,663
2022-10-20T08:14:29.038Z,669
2022-10-20T08:15:29.639Z,669
2022-10-20T08:16:30.257Z,669
2022-10-20T08:17:30.867Z,680
2022-10-20T08:18:31.682Z,675
2022-10-20T08:19:39.547Z,675
2022-10-20T08:20:40.172Z,675
2022-10-20T08:21:40.767Z,686
2022-10-20T08:22:41.385Z,686
2022-10-20T08:23:41.981Z,686
2022-10-20T08:24:42.582Z,697
2022-10-20T08:25:43.180Z,714
2022-10-20T08:26:43.781Z,714
2022-10-20T08:27:44.380Z,725
2022-10-20T08:28:44.978Z,691
2022-10-20T08:29:50.963Z,680
2022-10-20T08:30:47.167Z,658
2022-10-20T08:31:47.777Z,658
2022-10-20T08:32:48.386Z,663
2022-10-20T08:33:52.609Z,663
2022-10-20T08:34:50.594Z,675
2022-10-20T08:35:51.214Z,686
2022-10-20T08:36:51.813Z,697
2022-10-20T08:37:52.433Z,703
2022-10-20T08:38:53.034Z,703
2022-10-20T08:39:53.631Z,703
2022-10-20T08:40:54.233Z,703
2022-10-20T08:42:08.160Z,720
2022-10-20T08:42:56.332Z,725
2022-10-20T08:43:56.948Z,736
2022-10-20T08:44:57.567Z,748
2022-10-20T08:45:58.164Z,759
2022-10-20T08:46:58.762Z,776
2022-10-20T08:47:59.360Z,793
2022-10-20T08:48:59.967Z,810
2022-10-20T08:50:00.576Z,832
2022-10-20T08:51:01.174Z,871
2022-10-20T08:52:01.788Z,900
2022-10-20T08:53:02.371Z,933
2022-10-20T08:54:02.969Z,956
2022-10-20T08:55:03.568Z,990
2022-10-20T08:56:04.165Z,995
2022-10-20T08:57:04.766Z,1001
2022-10-20T08:58:05.363Z,984
2022-10-20T08:59:05.961Z,967
2022-10-20T09:00:09.007Z,967
2022-10-20T09:01:08.157Z,961
2022-10-20T09:02:08.790Z,945
2022-10-20T09:03:09.371Z,967
2022-10-20T09:04:09.970Z,973
2022-10-20T09:05:12.894Z,1001
2022-10-20T09:06:12.163Z,1001
2022-10-20T09:07:12.764Z,1012
2022-10-20T09:08:13.364Z,1018
2022-10-20T09:09:14.039Z,1040
2022-10-20T09:10:14.580Z,1046
2022-10-20T09:11:15.181Z,1080
2022-10-20T09:12:15.781Z,1057
2022-10-20T09:13:16.383Z,1051
2022-10-20T09:14:16.982Z,1051
2022-10-20T09:15:17.590Z,1057
2022-10-20T09:16:27.303Z,1051
2022-10-20T09:17:19.780Z,1051
2022-10-20T09:18:20.381Z,1119
2022-10-20T09:19:20.981Z,1136
2022-10-20T09:20:21.588Z,1181
2022-10-20T09:21:22.184Z,1186
2022-10-20T09:22:22.783Z,1119
2022-10-20T09:23:39.989Z,1164
2022-10-20T09:24:24.980Z,1192
2022-10-20T09:25:25.580Z,1192
2022-10-20T09:26:32.147Z,1226
2022-10-20T09:27:27.777Z,1170
2022-10-20T09:28:34.245Z,1198
2022-10-20T09:29:28.991Z,1248
2022-10-20T09:30:29.607Z,1243
2022-10-20T09:31:30.193Z,1271
2022-10-20T09:32:47.671Z,1260
2022-10-20T09:33:32.385Z,1170
2022-10-20T09:34:32.985Z,1130
2022-10-20T09:35:33.586Z,1102
2022-10-20T09:36:34.187Z,1108
2022-10-20T09:37:34.787Z,1125
2022-10-20T09:38:35.387Z,1254
2022-10-20T09:39:39.198Z,1248
2022-10-20T09:40:37.602Z,1338
2022-10-20T09:41:38.200Z,1355
2022-10-20T09:42:39.133Z,1288
2022-10-20T09:43:39.887Z,1293
2022-10-20T09:44:40.486Z,1254
2022-10-20T09:45:41.105Z,1153
2022-10-20T09:46:41.706Z,1175
2022-10-20T09:47:42.307Z,1164
2022-10-20T09:48:42.908Z,1192
2022-10-20T09:49:43.508Z,1136
2022-10-20T09:50:44.111Z,1108
2022-10-20T09:51:44.726Z,1051
2022-10-20T09:52:45.311Z,1046
2022-10-20T09:53:45.920Z,1051
2022-10-20T09:54:46.535Z,1057
2022-10-20T09:55:47.131Z,1074
2022-10-20T09:56:47.753Z,1091
2022-10-20T09:57:48.382Z,1153
2022-10-20T09:58:48.953Z,1181
2022-10-20T09:59:49.573Z,1215
2022-10-20T10:00:50.207Z,1254
2022-10-20T10:01:50.782Z,1243
2022-10-20T10:02:51.383Z,1288
2022-10-20T10:03:51.985Z,1305
2022-10-20T10:04:52.586Z,1411
2022-10-20T10:05:53.184Z,1490
2022-10-20T10:06:53.787Z,1400
2022-10-20T10:07:54.406Z,1451
2022-10-20T10:08:55.043Z,1473
2022-10-20T10:09:55.620Z,1563
2022-10-20T10:10:56.229Z,1608
2022-10-20T10:11:56.845Z,1575
2022-10-20T10:12:57.494Z,1687
2022-10-20T10:13:58.082Z,1771
2022-10-20T10:14:58.700Z,1490
2022-10-20T10:15:59.300Z,2328
2022-10-20T10:16:59.906Z,1839
2022-10-20T10:18:00.526Z,1794
2022-10-20T10:19:01.172Z,1456
2022-10-20T10:20:01.746Z,1507
2022-10-20T10:21:02.366Z,1586
2022-10-20T10:22:02.964Z,1378
2022-10-20T10:23:03.571Z,1231
2022-10-20T10:24:04.172Z,1293
2022-10-20T10:25:04.773Z,1276
2022-10-20T10:26:05.372Z,1237
2022-10-20T10:27:05.975Z,1338
2022-10-20T10:28:06.574Z,1378
2022-10-20T10:29:07.176Z,1366
2022-10-20T10:30:07.776Z,1366
2022-10-20T10:31:08.375Z,1451
2022-10-20T10:32:08.976Z,1614
2022-10-20T10:33:09.580Z,1642
2022-10-20T10:34:10.179Z,1603
2022-10-20T10:35:10.780Z,1878
2022-10-20T10:36:11.380Z,2030
2022-10-20T10:37:12.050Z,1867
2022-10-20T10:38:12.621Z,1788
2022-10-20T10:39:13.243Z,1620
2022-10-20T10:40:13.847Z,1473
2022-10-20T10:41:14.449Z,1395
2022-10-20T10:42:15.046Z,1417
2022-10-20T10:43:15.646Z,1389
2022-10-20T10:44:16.247Z,1535
2022-10-20T10:45:16.851Z,1648
2022-10-20T10:46:17.451Z,1563
2022-10-20T10:47:18.053Z,1546
2022-10-20T10:48:18.672Z,1546
2022-10-20T10:49:19.273Z,1350
2022-10-20T10:50:19.872Z,1181
2022-10-20T10:51:20.478Z,1158
2022-10-20T10:52:21.097Z,1125
2022-10-20T10:53:21.702Z,1108
2022-10-20T10:54:22.298Z,1113
2022-10-20T10:55:47.260Z,1130
2022-10-20T10:56:24.495Z,1175
2022-10-20T10:57:25.112Z,1192
2022-10-20T10:58:25.713Z,1175
2022-10-20T10:59:26.312Z,1153
2022-10-20T11:00:26.912Z,1170
2022-10-20T11:01:27.513Z,1192
2022-10-20T11:02:28.113Z,1203
2022-10-20T11:03:28.714Z,1220
2022-10-20T11:04:29.316Z,1254
2022-10-20T11:05:29.919Z,1316
2022-10-20T11:06:30.536Z,1383
2022-10-20T11:07:31.137Z,1530
2022-10-20T11:08:31.790Z,1507
2022-10-20T11:09:32.339Z,1563
2022-10-20T11:10:32.936Z,1749
2022-10-20T11:11:33.538Z,1563
2022-10-20T11:12:34.140Z,1642
2022-10-20T11:13:34.742Z,1563
2022-10-20T11:14:35.341Z,1456
2022-10-20T11:15:35.949Z,1411
2022-10-20T11:16:36.540Z,1400
2022-10-20T11:17:37.492Z,1395
2022-10-20T11:18:38.137Z,1428
2022-10-20T11:19:38.738Z,1485
2022-10-20T11:20:39.337Z,1468
2022-10-20T11:21:39.939Z,1575
2022-10-20T11:22:40.561Z,1980
2022-10-20T11:23:41.164Z,1698
2022-10-20T11:25:55.117Z,1575
2022-10-20T11:26:55.737Z,2188
2022-10-20T11:27:56.339Z,2385
2022-10-20T11:28:56.940Z,2356
2022-10-20T11:29:57.542Z,2514
2022-10-20T11:30:58.140Z,2559
2022-10-20T11:31:58.742Z,2469
2022-10-20T11:32:59.346Z,2340
2022-10-20T11:33:59.950Z,1867
2022-10-20T11:35:00.571Z,2103
2022-10-20T11:36:01.192Z,1788
2022-10-20T11:37:01.791Z,2019
2022-10-20T11:38:02.411Z,1507
2022-10-20T11:39:03.012Z,1603
2022-10-20T11:40:07.567Z,2025
2022-10-20T11:41:05.211Z,2008
2022-10-20T11:42:05.814Z,2047
2022-10-20T11:43:08.871Z,1350
2022-10-20T11:44:08.077Z,1254
2022-10-20T11:45:08.684Z,1231
2022-10-20T11:46:09.282Z,1186
2022-10-20T11:47:09.883Z,1141
2022-10-20T11:48:10.484Z,1125
2022-10-20T11:49:11.084Z,1057
2022-10-20T11:50:11.751Z,1023
2022-10-20T11:51:12.338Z,1018
2022-10-20T11:52:12.939Z,1023
2022-10-20T11:53:13.541Z,1040
2022-10-20T11:54:14.142Z,1074
2022-10-20T11:55:14.743Z,1119
2022-10-20T11:56:15.344Z,1119
2022-10-20T11:57:15.943Z,1158
2022-10-20T11:58:16.546Z,1164
2022-10-20T11:59:17.145Z,1215
2022-10-20T12:00:17.749Z,1276
2022-10-20T12:01:18.349Z,1327
2022-10-20T12:02:19.043Z,1361
2022-10-20T12:03:19.566Z,1591
2022-10-20T12:04:20.166Z,1383
2022-10-20T12:05:20.767Z,1237
2022-10-20T12:06:21.368Z,1181
2022-10-20T12:07:21.967Z,1164
2022-10-20T12:08:29.774Z,1136
2022-10-20T12:09:24.301Z,1113
2022-10-20T12:10:24.776Z,1102
2022-10-20T12:11:25.397Z,1130
2022-10-20T12:12:25.997Z,1254
2022-10-20T12:13:26.597Z,1158
2022-10-20T12:14:27.217Z,1147
2022-10-20T12:15:27.821Z,1158
2022-10-20T12:16:28.422Z,1198
2022-10-20T12:17:29.020Z,1288
2022-10-20T12:18:29.623Z,1597
2022-10-20T12:19:30.222Z,1535
2022-10-20T12:20:30.822Z,1411
2022-10-20T12:21:33.800Z,1805
2022-10-20T12:22:33.018Z,1861
2022-10-20T12:23:33.618Z,1884
2022-10-20T12:24:34.241Z,1828
2022-10-20T12:25:34.859Z,1698
2022-10-20T12:26:35.456Z,1906
2022-10-20T12:27:36.078Z,1361
2022-10-20T12:28:36.698Z,1530
2022-10-20T12:29:37.299Z,1383
2022-10-20T12:30:37.912Z,1333
2022-10-20T12:31:38.503Z,1395
2022-10-20T12:32:39.350Z,1265
2022-10-20T12:33:39.721Z,1215
2022-10-20T12:34:40.324Z,1181
2022-10-20T12:35:40.924Z,1136
2022-10-20T12:36:41.544Z,1074
2022-10-20T12:37:44.818Z,1012
2022-10-20T12:38:43.758Z,956
2022-10-20T12:39:44.357Z,900
2022-10-20T12:40:44.966Z,849
2022-10-20T12:41:45.863Z,810
2022-10-20T12:42:46.412Z,753
2022-10-20T12:43:47.010Z,714
2022-10-20T12:44:47.614Z,686
2022-10-20T12:45:48.211Z,669
2022-10-20T12:46:48.813Z,663
2022-10-20T12:47:49.413Z,652
2022-10-20T12:48:50.031Z,641
2022-10-20T12:49:50.630Z,635
2022-10-20T12:50:51.232Z,635
2022-10-20T12:51:51.844Z,641
2022-10-20T12:52:52.443Z,652
2022-10-20T12:53:53.043Z,669
2022-10-20T12:54:53.643Z,675
2022-10-20T12:55:54.245Z,691
2022-10-20T12:56:54.842Z,697
2022-10-20T12:57:55.461Z,703
2022-10-20T12:58:56.062Z,708
2022-10-20T12:59:56.662Z,697
2022-10-20T13:00:57.304Z,686
2022-10-20T13:01:57.881Z,663
2022-10-20T13:02:58.478Z,646
2022-10-20T13:03:59.077Z,630
2022-10-20T13:04:59.680Z,618
2022-10-20T13:06:00.277Z,596
2022-10-20T13:07:00.881Z,579
2022-10-20T13:08:01.479Z,562
2022-10-20T13:09:02.139Z,562
2022-10-20T13:10:04.346Z,556
2022-10-20T13:11:03.335Z,551
2022-10-20T13:12:03.941Z,551
2022-10-20T13:13:04.555Z,551
2022-10-20T13:14:05.165Z,551
2022-10-20T13:15:05.787Z,545
2022-10-20T13:16:06.384Z,540
2022-10-20T13:17:06.984Z,528
2022-10-20T13:18:07.583Z,511
2022-10-20T13:19:08.184Z,495
2022-10-20T13:20:08.783Z,472
2022-10-20T13:21:09.385Z,450
2022-10-20T13:22:09.984Z,421
2022-10-20T13:23:10.587Z,393
2022-10-20T13:24:11.186Z,365
2022-10-20T13:25:11.784Z,348
2022-10-20T13:26:12.388Z,326
2022-10-20T13:27:12.981Z,303
2022-10-20T13:28:13.578Z,275
2022-10-20T13:29:14.178Z,247
2022-10-20T13:30:14.775Z,219
2022-10-20T13:31:15.374Z,196
2022-10-20T13:32:15.978Z,180
2022-10-20T13:34:18.159Z,168
2022-10-20T13:35:18.764Z,168
2022-10-20T13:36:19.358Z,174
2022-10-20T13:37:22.739Z,174
2022-10-20T13:38:21.554Z,174
2022-10-20T13:39:22.152Z,174
2022-10-20T13:40:23.948Z,168
2022-10-20T13:41:24.343Z,163
2022-10-20T13:42:24.943Z,157
2022-10-20T13:43:25.542Z,146
2022-10-20T13:44:31.178Z,135
2022-10-20T13:45:26.750Z,129
2022-10-20T13:46:27.345Z,129
2022-10-20T13:47:27.944Z,129
2022-10-20T13:48:28.541Z,135
2022-10-20T13:49:29.141Z,140
2022-10-20T13:50:29.739Z,151
2022-10-20T13:51:30.341Z,157
2022-10-20T13:52:30.935Z,163
2022-10-20T13:53:31.534Z,163
2022-10-20T13:54:32.132Z,157
2022-10-20T13:55:32.750Z,151
2022-10-20T13:56:35.255Z,146
2022-10-20T13:57:34.941Z,146
2022-10-20T13:58:35.538Z,146
2022-10-20T13:59:36.137Z,140
2022-10-20T14:00:36.775Z,140
2022-10-20T14:01:37.336Z,146
2022-10-20T14:02:38.307Z,140
2022-10-20T14:03:39.057Z,140
2022-10-20T14:04:39.656Z,146
2022-10-20T14:05:40.254Z,146
2022-10-20T14:06:40.855Z,157
2022-10-20T14:07:41.453Z,163
2022-10-20T14:08:42.120Z,168
2022-10-20T14:09:46.590Z,174
2022-10-20T14:10:43.325Z,174
2022-10-20T14:11:43.957Z,174
2022-10-20T14:12:44.559Z,180
2022-10-20T14:13:45.153Z,185
2022-10-20T14:14:45.774Z,202
2022-10-20T14:15:46.371Z,219
2022-10-20T14:16:46.969Z,236
2022-10-20T14:17:47.659Z,253